Time;durP1;ratioP1;P1;durP2;ratioP2;P2;SDS_P1;SDS_P2;PMS_P1;PMS_P2;Temp;Humidity;BMP_temperature;BMP_pressure;BME280_temperature;BME280_humidity;BME280_pressure;Samples;Min_cycle;Max_cycle;Signal;HPM_P1;HPM_P2
2022/01/14 09:19:26;;;;;;;26.80;10.35;;;;;;;;;;4936587;29;20055;-96
2022/01/14 09:21:52;;;;;;;33.17;14.18;;;;;;;;;;4925612;29;20040;-96
2022/01/14 09:24:18;;;;;;;26.20;11.82;;;;;;;;;;4934977;29;20027;-96
2022/01/14 09:26:44;;;;;;;42.17;13.07;;;;;;;;;;4939187;29;20032;-96
2022/01/14 09:29:10;;;;;;;26.15;10.68;;;;;;;;;;4915287;29;20556;-96
2022/01/14 09:31:36;;;;;;;36.22;14.60;;;;;;;;;;4933956;29;20058;-92
2022/01/14 09:34:02;;;;;;;33.38;14.90;;;;;;;;;;4913313;29;20115;-96
2022/01/14 09:36:28;;;;;;;36.72;13.23;;;;;;;;;;4943632;28;20066;-96
2022/01/14 09:38:54;;;;;;;24.40;13.48;;;;;;;;;;4945828;29;20031;-96
2022/01/14 09:41:20;;;;;;;30.17;11.90;;;;;;;;;;4926325;29;20032;-96
2022/01/14 09:43:46;;;;;;;29.83;12.15;;;;;;;;;;4939832;29;20408;-96
2022/01/14 09:46:12;;;;;;;31.42;13.85;;;;;;;;;;4917109;29;20027;-95
2022/01/14 09:48:39;;;;;;;22.23;9.57;;;;;;;;;;4928622;29;20028;-95
2022/01/14 09:51:05;;;;;;;35.10;13.13;;;;;;;;;;4924807;29;20111;-95
2022/01/14 09:53:32;;;;;;;34.45;12.40;;;6.70;61.30;;;;;;4917923;29;20292;-95
2022/01/14 09:55:59;;;;;;;22.85;10.40;;;;;;;;;;4932332;29;20054;-95
2022/01/14 09:58:26;;;;;;;29.27;10.27;;;;;;;;;;4935845;29;20046;-93
2022/01/14 10:01:05;;;;;;;25.48;9.10;;;;;;;;;;4932547;29;20027;-93
2022/01/14 10:03:32;;;;;;;26.30;9.95;;;;;;;;;;4917364;29;20024;-91
2022/01/14 10:05:58;;;;;;;33.53;12.77;;;;;;;;;;4931589;29;20099;-91
2022/01/14 10:08:26;;;;;;;41.80;13.75;;;;;;;;;;4929709;29;20738;-92
2022/01/14 10:10:55;;;;;;;32.63;12.90;;;;;;;;;;4900872;29;20032;-90
2022/01/14 10:13:23;;;;;;;22.17;11.07;;;;;;;;;;4919273;29;20020;-95
2022/01/14 10:15:52;;;;;;;19.33;9.23;;;7.50;59.50;;;;;;4917252;29;20115;-91
2022/01/14 10:18:20;;;;;;;25.55;11.15;;;;;;;;;;4939424;29;20552;-90
2022/01/14 10:20:46;;;;;;;25.77;11.48;;;;;;;;;;4950961;29;20083;-95
2022/01/14 10:23:12;;;;;;;21.00;9.85;;;;;;;;;;4942530;29;20070;-95
2022/01/14 10:25:40;;;;;;;20.65;9.35;;;;;;;;;;4936306;29;20130;-95
2022/01/14 10:28:06;;;;;;;;;;;;;;;;;;4954887;28;20026;-96
2022/01/14 10:30:33;;;;;;;19.23;7.53;;;;;;;;;;4935773;29;19910;-95
2022/01/14 10:32:59;;;;;;;15.77;7.65;;;;;;;;;;4948298;28;20023;-88
2022/01/14 10:35:26;;;;;;;24.80;8.43;;;;;;;;;;4954965;28;20095;-94
2022/01/14 10:37:56;;;;;;;23.35;9.60;;;8.60;58.20;;;;;;4968916;28;20488;-96
2022/01/14 10:40:23;;;;;;;18.40;8.13;;;;;;;;;;4954905;28;20023;-96
2022/01/14 10:42:50;;;;;;;20.92;9.75;;;;;;;;;;4942836;29;20544;-95
2022/01/14 10:45:22;;;;;;;18.00;7.10;;;;;;;;;;4918856;29;20039;-95
2022/01/14 10:47:51;;;;;;;29.98;9.50;;;;;;;;;;4930424;29;20510;-92
2022/01/14 10:50:18;;;;;;;20.23;8.65;;;;;;;;;;4936272;29;20027;-92
2022/01/14 10:52:49;;;;;;;30.30;12.38;;;9.10;56.70;;;;;;4936233;28;20032;-90
2022/01/14 10:55:26;;;;;;;17.33;9.60;;;;;;;;;;4934719;29;20032;-92
2022/01/14 10:57:52;;;;;;;17.92;7.68;;;;;;;;;;4954985;28;20050;-94
2022/01/14 11:00:19;;;;;;;27.33;9.63;;;;;;;;;;4944799;29;20059;-94
2022/01/14 11:02:46;;;;;;;17.60;10.65;;;;;;;;;;4950889;29;20397;-94
2022/01/14 11:05:14;;;;;;;33.30;10.23;;;;;;;;;;4947518;29;20058;-95
2022/01/14 11:07:40;;;;;;;;;;;;;;;;;;4937283;29;20031;-94
2022/01/14 11:10:18;;;;;;;27.50;9.98;;;;;;;;;;4940603;29;20339;-95
2022/01/14 11:12:44;;;;;;;29.92;10.73;;;;;;;;;;4950426;29;20121;-96
2022/01/14 11:15:11;;;;;;;21.92;9.90;;;;;;;;;;4943239;29;20095;-95
2022/01/14 11:17:38;;;;;;;16.03;8.57;;;;;;;;;;4927058;29;20035;-95
2022/01/14 11:20:05;;;;;;;19.63;9.00;;;;;;;;;;4949331;29;20400;-95
2022/01/14 11:25:16;;;;;;;18.75;9.27;;;;;;;;;;4934256;29;20156;-94
2022/01/14 11:27:46;;;;;;;17.83;8.90;;;;;;;;;;4929381;28;20031;-94
2022/01/14 11:30:14;;;;;;;13.82;7.05;;;;;;;;;;4933836;29;20043;-94
2022/01/14 11:32:53;;;;;;;17.75;6.47;;;;;;;;;;4949729;28;20019;-94
2022/01/14 11:35:20;;;;;;;14.50;7.28;;;;;;;;;;4946860;29;20046;-94
2022/01/14 11:37:46;;;;;;;13.02;6.30;;;;;;;;;;4934998;29;20031;-94
2022/01/14 11:40:15;;;;;;;15.98;6.80;;;;;;;;;;4936060;29;20042;-95
2022/01/14 11:42:42;;;;;;;19.00;6.85;;;;;;;;;;4952509;29;20657;-94
2022/01/14 11:45:09;;;;;;;14.68;6.15;;;;;;;;;;4937034;29;20504;-94
2022/01/14 11:47:40;;;;;;;17.45;5.78;;;;;;;;;;4943652;29;20159;-94
2022/01/14 11:50:26;;;;;;;10.88;5.63;;;;;;;;;;4934333;29;20043;-95
2022/01/14 11:52:52;;;;;;;11.40;5.28;;;;;;;;;;4938383;29;20035;-94
2022/01/14 11:55:21;;;;;;;13.05;6.05;;;10.40;53.40;;;;;;4953744;29;20028;-93
2022/01/14 11:57:48;;;;;;;15.60;6.85;;;;;;;;;;4953272;29;20042;-93
2022/01/14 12:00:41;;;;;;;13.30;5.03;;;;;;;;;;4950522;29;20171;-94
2022/01/14 12:03:07;;;;;;;11.27;4.75;;;;;;;;;;4939377;29;20070;-93
2022/01/14 12:05:34;;;;;;;9.60;4.65;;;;;;;;;;4941571;29;20040;-95
2022/01/14 12:08:03;;;;;;;10.90;5.03;;;;;;;;;;4935885;29;20035;-94
2022/01/14 12:10:34;;;;;;;10.18;4.47;;;;;;;;;;4952498;28;20636;-95
2022/01/14 12:13:24;;;;;;;11.63;4.72;;;10.40;50.00;;;;;;4934121;29;20016;-95
2022/01/14 12:15:59;;;;;;;12.18;4.35;;;10.30;49.00;;;;;;4945415;28;20035;-94
2022/01/14 12:18:44;;;;;;;11.80;4.22;;;;;;;;;;4947955;29;20045;-94
2022/01/14 12:21:10;;;;;;;7.40;4.72;;;;;;;;;;4919410;29;20115;-94
2022/01/14 12:23:36;;;;;;;7.35;4.85;;;;;;;;;;4941146;29;20043;-95
2022/01/14 12:26:13;;;;;;;13.20;5.55;;;;;;;;;;4917262;29;20032;-94
2022/01/14 12:28:39;;;;;;;10.88;4.90;;;;;;;;;;4919091;29;20034;-95
2022/01/14 12:31:05;;;;;;;13.23;6.13;;;;;;;;;;4935539;28;20036;-94
2022/01/14 12:33:41;;;;;;;12.80;5.78;;;;;;;;;;4950829;28;20028;-94
2022/01/14 12:36:14;;;;;;;14.75;5.72;;;;;;;;;;4957395;28;20023;-92
2022/01/14 12:38:42;;;;;;;8.50;4.40;;;10.70;52.20;;;;;;4965304;28;20086;-94
2022/01/14 12:41:19;;;;;;;11.90;6.70;;;10.60;52.10;;;;;;4956205;29;20039;-91
2022/01/14 12:43:48;;;;;;;11.05;4.68;;;10.50;51.70;;;;;;4958126;28;20384;-91
2022/01/14 12:46:36;;;;;;;18.23;6.82;;;;;;;;;;4955778;28;20043;-91
2022/01/14 12:49:08;;;;;;;9.30;5.05;;;10.30;53.40;;;;;;4936756;29;20185;-92
2022/01/14 12:51:34;;;;;;;8.27;4.18;;;;;;;;;;4937048;29;20037;-90
2022/01/14 12:54:04;;;;;;;13.40;7.38;;;10.20;55.00;;;;;;4938658;29;20026;-92
2022/01/14 12:56:31;;;;;;;11.57;6.43;;;9.80;54.30;;;;;;4953905;29;20028;-89
2022/01/14 12:59:01;;;;;;;12.85;4.68;;;9.80;56.70;;;;;;4936668;29;20074;-89
2022/01/14 13:01:29;;;;;;;15.25;7.57;;;9.80;57.70;;;;;;4939900;29;20150;-90
2022/01/14 13:03:57;;;;;;;15.57;7.03;;;9.70;59.50;;;;;;4938105;29;20030;-89
2022/01/14 13:06:23;;;;;;;13.90;6.20;;;;;;;;;;4937887;29;20121;-90
2022/01/14 13:08:59;;;;;;;14.52;7.05;;;;;;;;;;4955346;28;20019;-93
2022/01/14 13:11:25;;;;;;;15.48;6.07;;;;;;;;;;4946209;29;20036;-92
2022/01/14 13:13:59;;;;;;;15.95;7.50;;;9.40;62.20;;;;;;4938831;29;20048;-91
2022/01/14 13:16:25;;;;;;;20.00;7.05;;;;;;;;;;4937555;29;20060;-92
2022/01/14 13:18:54;;;;;;;16.20;7.10;;;;;;;;;;4955325;29;20047;-91
2022/01/14 13:21:20;;;;;;;25.10;8.90;;;;;;;;;;4935364;29;20031;-91
2022/01/14 13:23:47;;;;;;;14.27;8.10;;;;;;;;;;4935185;29;20831;-90
2022/01/14 13:26:13;;;;;;;18.25;5.80;;;;;;;;;;4942739;29;20065;-91
2022/01/14 13:28:39;;;;;;;18.75;8.43;;;;;;;;;;4955952;28;20573;-92
2022/01/14 13:31:09;;;;;;;14.50;6.40;;;;;;;;;;4938546;28;20035;-90
2022/01/14 13:33:36;;;;;;;12.90;5.85;;;;;;;;;;4942517;29;20131;-91
2022/01/14 13:36:03;;;;;;;18.58;6.38;;;;;;;;;;4945282;28;20034;-92
2022/01/14 13:38:29;;;;;;;20.80;7.53;;;;;;;;;;4948147;28;20031;-91
2022/01/14 13:40:59;;;;;;;13.93;6.63;;;7.70;67.60;;;;;;4935419;29;20087;-92
2022/01/14 13:43:25;;;;;;;11.13;6.20;;;;;;;;;;4954557;28;20031;-92
2022/01/14 13:45:53;;;;;;;19.20;8.43;;;;;;;;;;4941495;28;20067;-92
2022/01/14 13:48:24;;;;;;;;;;;7.40;68.80;;;;;;4942929;29;20032;-92
2022/01/14 13:50:52;;;;;;;14.73;6.25;;;;;;;;;;4926528;29;19957;-92
2022/01/14 13:53:19;;;;;;;;;;;;;;;;;;4948062;29;20039;-93
2022/01/14 13:55:47;;;;;;;17.40;8.02;;;;;;;;;;4935732;29;19938;-92
2022/01/14 13:58:14;;;;;;;13.48;5.72;;;;;;;;;;4935522;29;20363;-94
2022/01/14 14:00:42;;;;;;;22.00;8.27;;;;;;;;;;4943228;28;20040;-92
2022/01/14 14:03:22;;;;;;;17.13;7.43;;;7.30;70.50;;;;;;4924350;29;20032;-92
2022/01/14 14:05:57;;;;;;;18.90;6.72;;;7.20;71.10;;;;;;4955113;29;20039;-92
2022/01/14 14:16:55;;;;;;;16.02;9.82;;;;;;;;;;4877676;29;20528;-94
2022/01/14 14:19:21;;;;;;;25.10;9.52;;;;;;;;;;4894975;29;20073;-92
2022/01/14 14:22:07;;;;;;;22.10;9.23;;;8.20;69.60;;;;;;4894071;29;20044;-92
2022/01/14 14:24:33;;;;;;;23.75;9.57;;;;;;;;;;4897474;29;20032;-92
2022/01/14 14:27:12;;;;;;;21.77;11.20;;;;;;;;;;4890586;29;20151;-91
2022/01/14 14:29:43;;;;;;;22.50;10.88;;;;;;;;;;4886419;29;20468;-90
2022/01/14 14:32:15;;;;;;;31.65;12.02;;;;;;;;;;4889420;29;20056;-88
2022/01/14 14:34:41;;;;;;;26.23;10.55;;;;;;;;;;4891896;29;20116;-89
2022/01/14 14:37:08;;;;;;;30.33;12.55;;;;;;;;;;4893424;29;20040;-89
2022/01/14 14:39:34;;;;;;;33.10;12.88;;;;;;;;;;4892577;29;20035;-92
2022/01/14 14:42:00;;;;;;;30.48;12.18;;;;;;;;;;4893769;29;20088;-90
2022/01/14 14:44:26;;;;;;;24.23;11.13;;;;;;;;;;4886750;29;20083;-93
2022/01/14 14:46:52;;;;;;;22.00;10.57;;;;;;;;;;4897339;29;20036;-92
2022/01/14 14:49:18;;;;;;;24.13;12.00;;;;;;;;;;4909294;29;20640;-92
2022/01/14 14:51:45;;;;;;;28.48;13.88;;;;;;;;;;4941582;29;20499;-93
2022/01/14 14:54:11;;;;;;;32.25;14.27;;;;;;;;;;4941100;29;20028;-91
2022/01/14 14:56:37;;;;;;;31.13;13.35;;;;;;;;;;4936240;29;20032;-91
2022/01/14 14:59:03;;;;;;;29.52;14.63;;;;;;;;;;4932005;29;20023;-93
2022/01/14 15:01:29;;;;;;;33.03;13.73;;;;;;;;;;4952776;29;20035;-93
2022/01/14 15:03:55;;;;;;;52.70;18.13;;;;;;;;;;4934506;29;20499;-94
2022/01/14 15:06:21;;;;;;;30.35;14.07;;;;;;;;;;4927008;29;20140;-94
2022/01/14 15:08:47;;;;;;;45.97;17.17;;;;;;;;;;4947542;29;20060;-93
2022/01/14 15:11:13;;;;;;;41.30;15.85;;;;;;;;;;4941834;29;20125;-93
2022/01/14 15:13:41;;;;;;;35.30;14.65;;;;;;;;;;4934754;29;20031;-93
2022/01/14 15:18:42;;;;;;;28.38;13.57;;;6.40;75.90;;;;;;4950480;28;20059;-94
2022/01/14 15:21:09;;;;;;;35.95;12.70;;;;;;;;;;4948520;29;20027;-92
2022/01/14 15:23:35;;;;;;;38.67;13.63;;;;;;;;;;4936686;29;20030;-93
2022/01/14 15:26:01;;;;;;;31.98;14.13;;;;;;;;;;4931394;29;20036;-93
2022/01/14 15:28:27;;;;;;;35.17;13.55;;;;;;;;;;4936942;29;20039;-95
2022/01/14 15:30:53;;;;;;;35.70;14.10;;;;;;;;;;4929042;29;20035;-94
2022/01/14 15:33:24;;;;;;;34.40;14.32;;;6.30;75.70;;;;;;4939874;28;20046;-94
2022/01/14 15:35:53;;;;;;;32.58;15.13;;;;;;;;;;4952370;28;20063;-94
2022/01/14 15:38:19;;;;;;;40.63;15.23;;;;;;;;;;4940517;29;20070;-94
2022/01/14 15:40:46;;;;;;;41.85;16.73;;;;;;;;;;4952667;29;20092;-94
2022/01/14 15:43:12;;;;;;;30.85;15.52;;;;;;;;;;4934683;29;20074;-94
2022/01/14 15:45:40;;;;;;;42.80;17.38;;;;;;;;;;4952421;29;20043;-94
2022/01/14 15:48:06;;;;;;;30.40;13.32;;;;;;;;;;4952719;29;20028;-94
2022/01/14 15:50:33;;;;;;;39.80;16.20;;;5.90;77.30;;;;;;4936725;28;20109;-95
2022/01/14 15:53:00;;;;;;;33.33;14.07;;;;;;;;;;4935204;28;20031;-94
2022/01/14 15:55:26;;;;;;;35.90;14.18;;;;;;;;;;4934616;29;20102;-94
2022/01/14 15:57:52;;;;;;;35.13;15.15;;;;;;;;;;4949844;28;20051;-95
2022/01/14 16:00:18;;;;;;;55.53;16.60;;;;;;;;;;4950779;29;20444;-95
2022/01/14 16:02:44;;;;;;;42.15;17.55;;;;;;;;;;4952419;29;20090;-94
2022/01/14 16:05:12;;;;;;;40.67;17.05;;;;;;;;;;4950287;29;20511;-95
2022/01/14 16:07:39;;;;;;;30.88;14.70;;;;;;;;;;4933290;28;20089;-95
2022/01/14 16:10:05;;;;;;;35.15;15.05;;;;;;;;;;4951718;28;20110;-95
2022/01/14 16:12:39;;;;;;;40.47;17.02;;;;;;;;;;4933702;29;20042;-95
2022/01/14 16:15:06;;;;;;;41.72;17.17;;;5.30;79.50;;;;;;4948569;29;20037;-96
2022/01/14 16:17:32;;;;;;;;;;;5.20;79.40;;;;;;4956418;29;20031;-96
2022/01/14 16:19:58;;;;;;;38.80;14.82;;;;;;;;;;4936488;29;19914;-95
2022/01/14 16:22:25;;;;;;;38.40;16.30;;;;;;;;;;4953371;29;20067;-96
2022/01/14 16:24:51;;;;;;;46.95;14.25;;;;;;;;;;4950977;29;20032;-95
2022/01/14 16:27:17;;;;;;;24.55;13.00;;;;;;;;;;4939633;28;20039;-95
2022/01/14 16:29:43;;;;;;;42.08;16.50;;;;;;;;;;4935869;29;20026;-91
2022/01/14 16:32:09;;;;;;;41.75;15.07;;;;;;;;;;4952556;29;20031;-89
2022/01/14 16:34:36;;;;;;;38.83;14.52;;;;;;;;;;4937577;28;20027;-91
2022/01/14 16:37:02;;;;;;;43.53;15.43;;;;;;;;;;4950805;28;20221;-90
2022/01/14 16:39:28;;;;;;;52.85;17.67;;;;;;;;;;4943930;28;20028;-90
2022/01/14 16:41:54;;;;;;;40.53;15.13;;;;;;;;;;4930944;28;20154;-92
2022/01/14 16:44:20;;;;;;;50.90;16.73;;;;;;;;;;4952194;29;20436;-91
2022/01/14 16:46:46;;;;;;;45.63;17.25;;;;;;;;;;4938804;29;20040;-92
2022/01/14 16:49:13;;;;;;;36.28;12.85;;;;;;;;;;4938257;29;20031;-92
2022/01/14 16:51:39;;;;;;;47.55;18.83;;;;;;;;;;4952748;28;20031;-92
2022/01/14 16:54:05;;;;;;;28.98;15.55;;;;;;;;;;4954818;29;20118;-92
2022/01/14 16:56:31;;;;;;;47.30;18.02;;;;;;;;;;4938558;29;20114;-92
2022/01/14 16:58:57;;;;;;;39.67;16.27;;;;;;;;;;4951944;29;20035;-93
2022/01/14 17:01:23;;;;;;;44.92;15.10;;;;;;;;;;4935721;29;20043;-93
2022/01/14 17:03:51;;;;;;;37.45;13.77;;;;;;;;;;4927679;29;20087;-93
2022/01/14 17:06:20;;;;;;;38.70;19.30;;;;;;;;;;4954532;29;20043;-93
2022/01/14 17:08:46;;;;;;;41.95;14.40;;;;;;;;;;4955065;29;20040;-94
2022/01/14 17:11:12;;;;;;;32.40;15.43;;;;;;;;;;4936974;29;20516;-91
2022/01/14 17:13:38;;;;;;;46.55;15.35;;;;;;;;;;4935187;28;20093;-92
2022/01/14 17:16:04;;;;;;;35.85;13.85;;;;;;;;;;4936655;29;20019;-93
2022/01/14 17:18:30;;;;;;;30.02;12.70;;;;;;;;;;4934120;28;20193;-93
2022/01/14 17:20:56;;;;;;;44.33;14.20;;;;;;;;;;4949798;29;20028;-92
2022/01/14 17:23:22;;;;;;;29.05;12.73;;;;;;;;;;4937737;29;20527;-93
2022/01/14 17:25:48;;;;;;;31.25;13.73;;;;;;;;;;4939359;29;20063;-93
2022/01/14 17:28:14;;;;;;;40.70;14.38;;;;;;;;;;4938101;28;20665;-92
2022/01/14 17:30:41;;;;;;;47.75;15.23;;;;;;;;;;4955160;29;20027;-92
2022/01/14 17:33:08;;;;;;;35.80;13.30;;;;;;;;;;4927492;29;20460;-92
2022/01/14 17:35:36;;;;;;;35.15;13.55;;;;;;;;;;4943207;28;20035;-94
2022/01/14 17:38:04;;;;;;;39.75;14.23;;;;;;;;;;4951214;29;20030;-92
2022/01/14 17:40:30;;;;;;;43.58;17.60;;;;;;;;;;4937572;28;20074;-94
2022/01/14 17:42:56;;;;;;;44.10;17.10;;;;;;;;;;4950761;29;20023;-93
2022/01/14 17:45:23;;;;;;;43.78;15.77;;;;;;;;;;4925251;29;20406;-93
2022/01/14 17:47:49;;;;;;;34.45;13.20;;;;;;;;;;4923546;28;20023;-93
2022/01/14 17:50:15;;;;;;;49.58;18.23;;;;;;;;;;4953758;29;20031;-94
2022/01/14 17:52:41;;;;;;;43.65;13.82;;;;;;;;;;4935485;29;20625;-93
2022/01/14 17:55:08;;;;;;;43.92;13.50;;;;;;;;;;4952853;28;20019;-91
2022/01/14 17:57:34;;;;;;;39.90;17.90;;;;;;;;;;4948461;29;20214;-94
2022/01/14 18:00:03;;;;;;;42.90;16.38;;;;;;;;;;4954030;28;20046;-93
2022/01/14 18:02:29;;;;;;;33.13;16.92;;;;;;;;;;4933764;29;20055;-92
2022/01/14 18:04:55;;;;;;;34.22;13.60;;;;;;;;;;4932392;29;20040;-91
2022/01/14 18:07:21;;;;;;;31.30;13.00;;;;;;;;;;4950307;28;20039;-94
2022/01/14 18:09:47;;;;;;;41.75;16.30;;;;;;;;;;4933107;29;20073;-94
2022/01/14 18:12:21;;;;;;;37.95;15.88;;;;;;;;;;4926454;29;20032;-91
2022/01/14 18:14:47;;;;;;;37.00;15.85;;;;;;;;;;4937070;29;20091;-93
2022/01/14 18:17:14;;;;;;;35.05;14.82;;;;;;;;;;4935188;29;20047;-92
2022/01/14 18:19:39;;;;;;;39.60;16.25;;;;;;;;;;4919944;29;20679;-92
2022/01/14 18:22:05;;;;;;;41.85;14.90;;;;;;;;;;4935168;29;20024;-93
2022/01/14 18:24:32;;;;;;;30.55;13.18;;;;;;;;;;4935147;28;20130;-92
2022/01/14 18:26:59;;;;;;;36.53;15.97;;;;;;;;;;4950903;29;20506;-93
2022/01/14 18:29:25;;;;;;;42.30;13.25;;;;;;;;;;4931524;29;20272;-93
2022/01/14 18:31:51;;;;;;;50.20;14.52;;;;;;;;;;4943793;29;20038;-93
2022/01/14 18:34:17;;;;;;;40.63;16.05;;;;;;;;;;4936479;29;20023;-92
2022/01/14 18:36:44;;;;;;;37.33;15.88;;;;;;;;;;4936211;28;20491;-92
2022/01/14 18:39:10;;;;;;;43.92;15.38;;;;;;;;;;4943320;29;20028;-94
2022/01/14 18:41:36;;;;;;;42.55;16.13;;;;;;;;;;4949681;29;20098;-93
2022/01/14 18:44:05;;;;;;;30.00;12.20;;;2.50;87.50;;;;;;4936959;29;20038;-93
2022/01/14 18:46:31;;;;;;;43.35;15.55;;;;;;;;;;4944926;29;20035;-92
2022/01/14 18:48:58;;;;;;;46.70;15.50;;;;;;;;;;4952029;28;20035;-93
2022/01/14 18:51:24;;;;;;;53.97;16.30;;;;;;;;;;4953371;29;20070;-93
2022/01/14 18:53:50;;;;;;;50.60;16.70;;;;;;;;;;4946737;29;20039;-93
2022/01/14 18:56:20;;;;;;;35.05;14.32;;;;;;;;;;4946789;29;20028;-94
2022/01/14 18:58:47;;;;;;;42.05;16.67;;;;;;;;;;4946868;29;20032;-94
2022/01/14 19:01:14;;;;;;;30.23;15.30;;;;;;;;;;4935041;29;20024;-96
2022/01/14 19:03:40;;;;;;;38.10;14.38;;;;;;;;;;4953351;29;20313;-96
2022/01/14 19:06:07;;;;;;;35.03;15.13;;;;;;;;;;4925380;29;20044;-96
2022/01/14 19:08:35;;;;;;;25.15;9.88;;;;;;;;;;4945374;29;20031;-95
2022/01/14 19:11:04;;;;;;;9.10;5.18;;;;;;;;;;4952104;29;20038;-95
2022/01/14 19:13:35;;;;;;;14.27;6.38;;;;;;;;;;4943170;29;20032;-96
2022/01/14 19:16:01;;;;;;;22.63;7.72;;;;;;;;;;4952333;29;20039;-96
2022/01/14 19:18:28;;;;;;;24.67;10.02;;;;;;;;;;4952779;28;20500;-96
2022/01/14 19:20:54;;;;;;;33.35;11.77;;;;;;;;;;4937177;29;20129;-95
2022/01/14 19:23:21;;;;;;;24.25;10.13;;;;;;;;;;4921945;28;20035;-96
2022/01/14 19:25:48;;;;;;;21.25;10.50;;;;;;;;;;4937902;29;20043;-96
2022/01/14 19:28:14;;;;;;;31.13;9.73;;;;;;;;;;4940149;29;20818;-96
2022/01/14 19:30:40;;;;;;;30.98;10.48;;;;;;;;;;4945975;29;20280;-96
2022/01/14 19:33:06;;;;;;;26.95;12.27;;;;;;;;;;4937811;29;20408;-96
2022/01/14 19:35:33;;;;;;;33.92;14.68;;;;;;;;;;4935455;28;20039;-96
2022/01/14 19:38:01;;;;;;;30.85;10.85;;;;;;;;;;4949615;29;20032;-95
2022/01/14 19:40:32;;;;;;;34.80;14.25;;;;;;;;;;4936453;29;20044;-96
2022/01/14 19:42:58;;;;;;;35.72;9.65;;;;;;;;;;4938512;28;20031;-96
2022/01/14 19:45:25;;;;;;;43.65;15.77;;;;;;;;;;4954805;28;20354;-94
2022/01/14 19:47:51;;;;;;;27.30;8.77;;;;;;;;;;4931517;29;20550;-96
2022/01/14 19:50:18;;;;;;;19.70;6.65;;;;;;;;;;4945470;29;20039;-96
2022/01/14 19:52:44;;;;;;;23.85;6.85;;;;;;;;;;4947616;29;20043;-96
2022/01/14 19:55:11;;;;;;;21.15;10.05;;;;;;;;;;4958346;29;20028;-96
2022/01/14 19:57:37;;;;;;;;;;;;;;;;;;4941492;29;20035;-96
2022/01/14 20:00:08;;;;;;;12.30;6.55;;;;;;;;;;4957559;29;19922;-96
2022/01/14 20:02:34;;;;;;;23.05;8.60;;;;;;;;;;4952171;29;20031;-96
2022/01/14 20:05:02;;;;;;;13.25;7.70;;;;;;;;;;4955347;29;20078;-96
2022/01/14 20:07:31;;;;;;;9.40;6.57;;;;;;;;;;4958460;29;20397;-96
2022/01/14 20:09:57;;;;;;;20.27;7.85;;;;;;;;;;4941528;29;20503;-96
2022/01/14 20:12:24;;;;;;;28.50;10.27;;;;;;;;;;4933454;29;20448;-96
2022/01/14 20:14:50;;;;;;;;;;;1.80;87.50;;;;;;4929614;29;20070;-95
2022/01/14 20:17:17;;;;;;;18.25;8.07;;;;;;;;;;4954172;29;19906;-96
2022/01/14 20:19:43;;;;;;;24.33;7.82;;;;;;;;;;4958676;28;20052;-96
2022/01/14 20:22:09;;;;;;;21.85;11.52;;;;;;;;;;4956144;29;20031;-95
2022/01/14 20:24:35;;;;;;;20.17;10.75;;;;;;;;;;4941004;29;20030;-95
2022/01/14 20:27:02;;;;;;;20.20;10.18;;;;;;;;;;4957750;29;20497;-96
2022/01/14 20:29:28;;;;;;;24.98;10.48;;;;;;;;;;4940483;28;20142;-96
2022/01/14 20:31:54;;;;;;;18.17;7.40;;;;;;;;;;4955603;29;20023;-96
2022/01/14 20:34:20;;;;;;;15.33;7.40;;;;;;;;;;4958111;29;20676;-96
2022/01/14 20:36:46;;;;;;;15.68;6.50;;;;;;;;;;4957374;29;20294;-96
2022/01/14 20:39:13;;;;;;;16.55;7.28;;;;;;;;;;4958291;29;20027;-96
2022/01/14 20:41:46;;;;;;;16.05;6.35;;;;;;;;;;4924974;29;20141;-96
2022/01/14 20:44:13;;;;;;;10.25;5.22;;;;;;;;;;4955399;29;20122;-96
2022/01/14 20:46:39;;;;;;;9.30;5.43;;;;;;;;;;4957756;28;20039;-96
2022/01/14 20:49:08;;;;;;;22.88;7.63;;;;;;;;;;4957828;29;20051;-96
2022/01/14 20:51:34;;;;;;;16.40;6.50;;;;;;;;;;4949088;29;20554;-96
2022/01/14 20:54:01;;;;;;;16.33;6.80;;;;;;;;;;4954280;28;20023;-96
2022/01/14 20:56:28;;;;;;;10.77;4.93;;;;;;;;;;4940057;29;20066;-96
2022/01/14 20:58:56;;;;;;;11.18;5.82;;;;;;;;;;4955135;29;20027;-96
2022/01/14 21:01:22;;;;;;;24.58;9.90;;;;;;;;;;4949858;29;20046;-95
2022/01/14 21:03:48;;;;;;;23.58;8.48;;;;;;;;;;4939274;29;20069;-95
2022/01/14 21:06:16;;;;;;;19.10;6.60;;;;;;;;;;4935526;29;20039;-96
2022/01/14 21:08:42;;;;;;;;;;;;;;;;;;4941005;28;20544;-96
2022/01/14 21:11:08;;;;;;;14.43;7.28;;;;;;;;;;4956706;29;19941;-96
2022/01/14 21:13:34;;;;;;;10.77;5.25;;;;;;;;;;4937250;29;20028;-96
2022/01/14 21:16:00;;;;;;;18.90;6.50;;;;;;;;;;4956358;29;20027;-96
2022/01/14 21:18:26;;;;;;;11.85;6.07;;;;;;;;;;4936704;29;20133;-96
2022/01/14 21:20:56;;;;;;;12.00;5.78;;;;;;;;;;4953058;29;20040;-96
2022/01/14 21:23:26;;;;;;;18.63;7.35;;;;;;;;;;4938277;28;20114;-96
2022/01/14 21:25:53;;;;;;;23.38;10.85;;;;;;;;;;4948428;29;20095;-96
2022/01/14 21:28:25;;;;;;;17.67;8.68;;;;;;;;;;4956704;29;20047;-96
2022/01/14 21:30:51;;;;;;;26.02;8.88;;;;;;;;;;4936158;29;20567;-96
2022/01/14 21:33:18;;;;;;;16.35;8.52;;;;;;;;;;4950042;29;20046;-96
2022/01/14 21:35:45;;;;;;;27.23;10.13;;;;;;;;;;4950087;28;20027;-96
2022/01/14 21:38:12;;;;;;;24.10;10.23;;;;;;;;;;4969890;28;20043;-96
2022/01/14 21:40:38;;;;;;;25.95;12.35;;;;;;;;;;4956570;29;20035;-95
2022/01/14 21:43:06;;;;;;;31.80;11.88;;;;;;;;;;4956551;29;20027;-95
2022/01/14 21:45:33;;;;;;;27.70;12.30;;;;;;;;;;4956756;29;20054;-95
2022/01/14 21:48:00;;;;;;;35.88;10.60;;;;;;;;;;4956152;29;20031;-95
2022/01/14 21:50:26;;;;;;;24.17;7.28;;;;;;;;;;4939034;29;20023;-96
2022/01/14 21:52:53;;;;;;;31.05;8.95;;;;;;;;;;4924232;29;20030;-96
2022/01/14 21:55:19;;;;;;;8.23;5.40;;;;;;;;;;4939355;29;20041;-96
2022/01/14 21:57:46;;;;;;;19.45;7.03;;;;;;;;;;4938802;29;20626;-95
2022/01/14 22:00:15;;;;;;;15.85;8.25;;;;;;;;;;4956097;29;20067;-94
2022/01/14 22:02:41;;;;;;;15.82;5.88;;;;;;;;;;4955714;29;20035;-95
2022/01/14 22:05:07;;;;;;;14.88;6.82;;;;;;;;;;4935094;29;20077;-96
2022/01/14 22:07:37;;;;;;;16.67;7.82;;;;;;;;;;4955626;29;20031;-95
2022/01/14 22:10:05;;;;;;;10.23;5.47;;;;;;;;;;4916119;29;20099;-95
2022/01/14 22:12:36;;;;;;;16.95;6.95;;;;;;;;;;4953481;29;20031;-95
2022/01/14 22:15:13;;;;;;;32.53;8.82;;;;;;;;;;4948604;29;20401;-95
2022/01/14 22:17:40;;;;;;;21.27;8.50;;;;;;;;;;4946305;29;20043;-96
2022/01/14 22:20:09;;;;;;;13.38;4.93;;;;;;;;;;4935491;29;20436;-96
2022/01/14 22:22:47;;;;;;;14.77;6.00;;;;;;;;;;4953221;29;20421;-95
2022/01/14 22:50:15;;;;;;;19.10;7.60;;;;;;;;;;4936510;29;20102;-96
2022/01/14 22:52:49;;;;;;;23.75;10.63;;;;;;;;;;4938659;29;20035;-96
2022/01/14 22:55:24;;;;;;;27.05;10.10;;;;;;;;;;4923003;29;20035;-96
2022/01/14 22:57:54;;;;;;;36.50;11.10;;;;;;;;;;4937447;29;20378;-96
2022/01/14 23:00:30;;;;;;;30.02;11.32;;;;;;;;;;4939071;29;20051;-96
2022/01/14 23:08:32;;;;;;;30.23;10.07;;;;;;;;;;4904378;29;20122;-96
2022/01/14 23:11:10;;;;;;;25.95;9.93;;;;;;;;;;4920332;29;20036;-94
2022/01/14 23:35:48;;;;;;;33.53;11.35;;;;;;;;;;5076356;23;20059;-96
2022/01/14 23:58:06;;;;;;;23.60;10.23;;;;;;;;;;5275484;23;20067;-96
